Time;durP1;ratioP1;P1;durP2;ratioP2;P2;SDS_P1;SDS_P2;PMS_P1;PMS_P2;Temp;Humidity;BMP_temperature;BMP_pressure;BME280_temperature;BME280_humidity;BME280_pressure;Samples;Min_cycle;Max_cycle;Signal;HPM_P1;HPM_P2
2021/06/07 00:00:58;;;;;;;54.70;41.07;;;;;;;18.56;68.76;101837.28;5038073;28;20731;-66
2021/06/07 00:03:23;;;;;;;52.00;38.27;;;;;;;18.54;69.08;101841.69;5037755;28;20205;-66
2021/06/07 00:05:48;;;;;;;47.70;38.80;;;;;;;18.21;70.13;101838.34;5038336;28;20448;-65
2021/06/07 00:08:14;;;;;;;56.40;41.23;;;;;;;18.40;69.54;101845.31;5038113;28;20244;-66
2021/06/07 00:10:39;;;;;;;53.30;40.40;;;;;;;18.29;69.80;101840.06;5037212;28;20170;-66
2021/06/07 00:13:06;;;;;;;60.43;41.03;;;;;;;18.58;68.76;101836.38;5038102;28;20162;-66
2021/06/07 00:15:33;;;;;;;56.87;41.10;;;;;;;18.27;69.58;101840.97;5037883;28;20174;-66
2021/06/07 00:17:58;;;;;;;66.23;42.40;;;;;;;18.22;70.47;101840.09;5037891;28;20808;-65
2021/06/07 00:20:45;;;;;;;60.67;39.10;;;;;;;18.29;70.08;101831.25;5038315;28;20407;-65
2021/06/07 00:23:11;;;;;;;50.57;38.67;;;;;;;18.49;69.18;101836.44;5037732;28;20184;-65
2021/06/07 00:25:38;;;;;;;43.00;37.20;;;;;;;18.23;69.86;101839.22;5036797;28;20487;-65
2021/06/07 00:28:04;;;;;;;45.07;35.57;;;;;;;18.30;69.57;101840.94;5037630;28;20412;-64
2021/06/07 00:30:29;;;;;;;44.33;36.87;;;;;;;18.52;68.89;101844.34;5037650;28;20665;-65
2021/06/07 00:32:54;;;;;;;51.00;38.83;;;;;;;18.74;68.04;101831.00;5037916;28;20170;-65
2021/06/07 00:35:22;;;;;;;48.90;37.70;;;;;;;18.41;69.28;101847.03;5020406;28;20439;-66
2021/06/07 00:37:47;;;;;;;46.40;37.67;;;;;;;18.31;70.04;101843.56;5037616;28;20170;-65
2021/06/07 00:40:14;;;;;;;52.17;38.17;;;;;;;18.61;68.81;101835.50;5038150;28;20423;-65
2021/06/07 00:42:39;;;;;;;47.97;39.80;;;;;;;18.50;68.94;101841.72;5037525;28;20174;-65
2021/06/07 00:45:11;;;;;;;56.87;39.00;;;;;;;18.42;69.16;101838.25;5037720;28;20454;-65
2021/06/07 00:47:37;;;;;;;50.67;39.73;;;;;;;18.15;70.35;101833.97;5037986;28;20167;-65
2021/06/07 00:50:10;;;;;;;55.17;42.50;;;;;;;18.07;70.27;101834.00;5037757;28;20431;-66
2021/06/07 00:52:36;;;;;;;50.20;37.97;;;;;;;18.09;70.33;101840.16;5037313;28;20548;-65
2021/06/07 00:55:03;;;;;;;51.03;38.47;;;;;;;18.02;70.43;101830.50;5038277;28;20520;-65
2021/06/07 00:57:29;;;;;;;47.40;40.13;;;;;;;18.09;70.52;101836.63;5037328;28;20166;-65
2021/06/07 00:59:54;;;;;;;49.93;38.67;;;;;;;18.21;70.20;101844.47;5037464;28;20494;-65
2021/06/07 01:02:19;;;;;;;47.80;38.10;;;;;;;18.15;70.71;101845.41;5037515;28;20423;-65
2021/06/07 01:04:45;;;;;;;45.97;38.30;;;;;;;18.16;70.29;101843.66;5037212;28;20217;-65
2021/06/07 01:07:10;;;;;;;52.30;38.70;;;;;;;18.26;69.73;101847.13;5037490;28;20224;-65
2021/06/07 01:09:35;;;;;;;48.50;38.33;;;;;;;18.30;69.57;101843.59;5037846;28;20170;-66
2021/06/07 01:12:01;;;;;;;53.47;39.70;;;;;;;18.21;70.10;101839.22;5037335;28;20174;-65
2021/06/07 01:14:26;;;;;;;51.33;38.60;;;;;;;18.11;70.44;101841.03;5037537;28;20179;-65
2021/06/07 01:16:51;;;;;;;53.77;36.93;;;;;;;18.23;70.19;101842.72;5037804;28;20205;-65
2021/06/07 01:19:18;;;;;;;51.63;39.20;;;;;;;18.22;69.92;101842.75;5023353;28;20170;-65
2021/06/07 01:21:44;;;;;;;54.40;41.20;;;;;;;17.96;70.92;101839.31;5040267;28;20185;-66
2021/06/07 01:24:09;;;;;;;51.53;38.57;;;;;;;18.15;70.35;101837.47;5040302;28;20431;-67
2021/06/07 01:26:34;;;;;;;50.17;39.27;;;;;;;18.10;70.70;101841.03;5040936;28;20178;-68
2021/06/07 01:29:00;;;;;;;53.43;39.10;;;;;;;17.99;70.85;101836.66;5040871;28;20484;-65
2021/06/07 01:31:25;;;;;;;55.37;39.80;;;;;;;18.16;70.42;101833.09;5040656;28;20560;-65
2021/06/07 01:33:53;;;;;;;54.63;40.87;;;;;;;17.80;71.89;101840.22;5040918;28;20185;-65
2021/06/07 01:36:18;;;;;;;57.80;40.10;;;;;;;17.93;71.52;101841.97;5041161;28;20205;-66
2021/06/07 01:38:44;;;;;;;66.70;42.20;;;;;;;18.05;71.16;101830.50;5040687;28;20417;-65
2021/06/07 01:41:11;;;;;;;65.97;40.23;;;;;;;17.99;70.94;101836.66;5040752;28;20170;-66
2021/06/07 01:43:38;;;;;;;60.80;40.87;;;;;;;17.87;71.37;101836.66;5040953;28;20440;-66
2021/06/07 01:46:03;;;;;;;57.03;40.97;;;;;;;17.57;72.45;101835.00;5040548;28;20456;-66
2021/06/07 01:48:29;;;;;;;64.50;44.10;;;;;;;17.59;72.75;101849.94;5040471;28;20429;-65
2021/06/07 01:50:57;;;;;;;67.60;43.07;;;;;;;17.68;72.45;101841.13;5040972;28;20181;-65
2021/06/07 01:53:24;;;;;;;69.97;42.97;;;;;;;17.81;72.23;101834.94;5040215;28;20236;-66
2021/06/07 01:55:52;;;;;;;57.10;41.23;;;;;;;17.89;71.80;101831.38;5040329;28;20449;-66
2021/06/07 01:58:19;;;;;;;69.07;43.43;;;;;;;17.74;72.21;101834.94;5040666;28;20811;-66
2021/06/07 02:00:47;;;;;;;66.90;44.20;;;;;;;17.91;71.44;101834.91;5040320;28;20755;-66
2021/06/07 02:03:15;;;;;;;66.43;45.40;;;;;;;17.69;72.14;101837.63;5040022;28;20426;-66
2021/06/07 02:05:42;;;;;;;61.30;42.90;;;;;;;17.74;72.35;101834.94;5040497;28;20437;-66
2021/06/07 02:08:10;;;;;;;72.30;48.33;;;;;;;17.66;72.83;101838.50;5040063;28;20413;-67
2021/06/07 02:10:42;;;;;;;67.63;44.10;;;;;;;17.83;72.13;101830.56;5039984;28;20471;-66
2021/06/07 02:13:08;;;;;;;57.83;43.17;;;;;;;17.75;72.39;101828.81;5039821;28;20512;-66
2021/06/07 02:15:34;;;;;;;68.83;45.23;;;;;;;17.70;72.30;101828.81;5039997;28;20396;-66
2021/06/07 02:18:08;;;;;;;67.50;43.67;;;;;;;17.61;73.31;101831.47;5040477;28;20478;-66
2021/06/07 02:20:34;;;;;;;71.73;46.47;;;;;;;17.42;73.90;101825.38;5039927;28;20427;-65
2021/06/07 02:23:00;;;;;;;56.50;44.07;;;;;;;17.60;73.29;101827.06;5039663;28;20489;-66
2021/06/07 02:25:26;;;;;;;65.93;45.33;;;;;;;17.31;74.27;101826.25;5039710;28;20440;-66
2021/06/07 02:27:51;;;;;;;66.07;43.50;;;;;;;17.68;73.12;101827.94;5039770;28;20441;-66
2021/06/07 02:30:20;;;;;;;73.50;44.30;;;;;;;17.44;73.91;101832.38;5038935;28;20181;-66
2021/06/07 02:32:45;;;;;;;63.30;43.77;;;;;;;17.48;73.72;101834.13;5038842;28;20170;-65
2021/06/07 02:35:14;;;;;;;72.07;44.37;;;;;;;17.30;74.42;101834.16;5039637;28;20409;-65
2021/06/07 02:37:40;;;;;;;74.87;44.93;;;;;;;17.50;73.50;101834.13;5040132;28;20205;-64
2021/06/07 02:40:07;;;;;;;65.73;43.87;;;;;;;17.43;73.96;101835.91;5039656;28;20431;-65
2021/06/07 02:42:33;;;;;;;67.63;45.40;;;;;;;17.33;74.26;101842.06;5038507;28;20178;-65
2021/06/07 02:44:59;;;;;;;64.53;46.47;;;;;;;17.50;73.90;101834.13;5039814;28;20444;-65
2021/06/07 02:47:24;;;;;;;69.67;46.67;;;;;;;17.83;72.69;101835.81;5039313;28;20444;-64
2021/06/07 02:49:49;;;;;;;76.87;46.70;;;;;;;17.54;73.44;101838.53;5039324;28;20197;-65
2021/06/07 02:52:15;;;;;;;72.13;46.10;;;;;;;17.63;73.20;101834.97;5039962;28;20170;-66
2021/06/07 02:54:40;;;;;;;69.93;46.20;;;;;;;17.72;73.03;101837.59;5039563;28;20189;-66
2021/06/07 02:57:06;;;;;;;70.97;45.17;;;;;;;17.71;72.98;101838.50;5039173;28;20186;-65
2021/06/07 02:59:31;;;;;;;82.03;47.27;;;;;;;17.44;73.68;101837.66;5038724;28;20465;-65
2021/06/07 03:01:56;;;;;;;69.13;46.50;;;;;;;17.38;73.98;101839.44;5038626;28;20269;-65
2021/06/07 03:04:22;;;;;;;68.77;45.73;;;;;;;17.50;73.89;101842.03;5038943;28;20332;-65
2021/06/07 03:06:47;;;;;;;71.90;45.83;;;;;;;17.54;73.53;101832.38;5039254;28;20170;-65
2021/06/07 03:09:12;;;;;;;93.00;49.63;;;;;;;17.58;73.49;101836.78;5038803;28;20198;-65
2021/06/07 03:11:38;;;;;;;79.73;47.97;;;;;;;17.56;73.69;101844.66;5038996;28;20194;-65
2021/06/07 03:14:03;;;;;;;79.63;48.40;;;;;;;17.73;73.00;101834.09;5022171;28;20187;-65
2021/06/07 03:16:29;;;;;;;74.10;45.20;;;;;;;17.69;72.98;101840.25;5038900;28;20540;-65
2021/06/07 03:18:54;;;;;;;76.73;47.00;;;;;;;17.49;73.74;101837.66;5038752;28;20167;-65
2021/06/07 03:21:19;;;;;;;66.63;44.70;;;;;;;17.56;73.43;101831.47;5039092;28;20232;-66
2021/06/07 03:23:45;;;;;;;71.77;45.80;;;;;;;17.60;73.36;101840.25;5038703;28;20415;-66
2021/06/07 03:26:11;;;;;;;72.10;44.07;;;;;;;17.44;73.97;101829.75;5038592;28;20627;-65
2021/06/07 03:28:37;;;;;;;72.67;45.93;;;;;;;17.62;73.27;101830.59;5039180;28;20174;-65
2021/06/07 03:31:03;;;;;;;76.07;49.60;;;;;;;17.57;73.36;101833.22;5038525;28;20210;-65
2021/06/07 03:33:28;;;;;;;67.43;44.90;;;;;;;17.63;73.54;101833.22;5038323;28;20437;-65
2021/06/07 03:35:56;;;;;;;72.50;47.57;;;;;;;17.49;73.99;101830.63;5038766;28;20368;-65
2021/06/07 03:38:22;;;;;;;60.23;43.37;;;;;;;17.45;73.76;101833.25;5038375;28;20179;-65
2021/06/07 03:40:51;;;;;;;79.20;46.40;;;;;;;17.05;75.67;101834.16;5038030;28;20425;-65
2021/06/07 03:43:17;;;;;;;69.37;45.17;;;;;;;17.50;73.79;101827.09;5038686;28;20417;-66
2021/06/07 03:45:42;;;;;;;69.80;44.67;;;;;;;17.38;74.45;101834.16;5038081;28;20514;-66
2021/06/07 03:48:08;;;;;;;72.60;46.30;;;;;;;17.28;74.67;101826.25;5038162;28;20185;-65
2021/06/07 03:50:34;;;;;;;79.07;46.57;;;;;;;17.26;74.86;101829.75;5037937;28;20257;-65
2021/06/07 03:52:59;;;;;;;60.90;42.10;;;;;;;17.42;74.42;101834.13;5038116;28;20206;-65
2021/06/07 03:55:27;;;;;;;71.40;46.20;;;;;;;17.51;73.82;101833.25;5038137;28;20434;-65
2021/06/07 03:57:53;;;;;;;65.00;45.77;;;;;;;17.12;74.69;101832.41;5038511;28;20170;-65
2021/06/07 04:00:21;;;;;;;64.23;44.37;;;;;;;17.38;74.36;101834.16;5038022;28;20486;-66
2021/06/07 04:02:47;;;;;;;61.60;46.40;;;;;;;17.54;73.71;101833.25;5037850;28;20417;-66
2021/06/07 04:05:13;;;;;;;55.30;42.67;;;;;;;17.47;74.09;101837.66;5038598;28;20444;-65
2021/06/07 04:07:39;;;;;;;56.23;39.50;;;;;;;17.63;73.54;101842.88;5037861;28;20174;-66
2021/06/07 04:10:08;;;;;;;60.47;44.17;;;;;;;17.58;73.25;101836.78;5037796;28;20578;-66
2021/06/07 04:12:33;;;;;;;56.80;41.77;;;;;;;17.21;74.93;101840.31;5037357;28;20452;-66
2021/06/07 04:14:58;;;;;;;59.97;42.87;;;;;;;17.42;74.30;101836.78;5037812;28;20395;-65
2021/06/07 04:17:23;;;;;;;64.33;48.90;;;;;;;17.33;74.95;101845.59;5038042;28;20253;-65
2021/06/07 04:19:49;;;;;;;57.13;41.37;;;;;;;17.61;73.69;101845.53;5038182;28;20201;-64
2021/06/07 04:22:14;;;;;;;56.93;40.70;;;;;;;17.68;73.24;101847.28;5037652;28;20200;-67
2021/06/07 04:24:40;;;;;;;57.33;41.60;;;;;;;17.79;72.50;101846.38;5037644;28;20226;-66
2021/06/07 04:27:09;;;;;;;56.97;40.80;;;;;;;17.47;73.86;101848.19;5038307;28;20174;-65
2021/06/07 04:29:34;;;;;;;54.10;40.17;;;;;;;17.29;74.58;101851.75;5037761;28;20204;-66
2021/06/07 04:31:59;;;;;;;61.27;44.20;;;;;;;17.66;73.52;101849.03;5037588;28;20396;-66
2021/06/07 04:34:25;;;;;;;62.27;42.97;;;;;;;17.66;73.71;101849.03;5038153;28;20178;-66
2021/06/07 04:36:50;;;;;;;58.03;41.70;;;;;;;17.58;73.53;101845.53;5037519;28;20189;-65
2021/06/07 04:39:15;;;;;;;58.90;41.60;;;;;;;17.71;73.35;101841.13;5037838;28;20206;-66
2021/06/07 04:41:41;;;;;;;63.23;42.03;;;;;;;17.39;74.30;101839.41;5037999;28;20177;-65
2021/06/07 04:44:06;;;;;;;58.40;39.80;;;;;;;17.46;74.13;101840.28;5037555;28;20174;-66
2021/06/07 04:46:32;;;;;;;54.97;41.23;;;;;;;17.65;73.16;101833.22;5037631;28;20604;-66
2021/06/07 04:48:58;;;;;;;54.77;41.70;;;;;;;17.88;72.63;101837.56;5037927;28;20170;-66
2021/06/07 04:51:23;;;;;;;51.57;37.70;;;;;;;17.45;74.21;101843.81;5037504;28;20421;-66
2021/06/07 04:53:48;;;;;;;52.93;39.83;;;;;;;17.58;73.34;101840.28;5040143;28;20208;-66
2021/06/07 04:56:13;;;;;;;49.57;40.50;;;;;;;17.63;73.16;101848.16;5042017;28;20162;-66
2021/06/07 04:58:39;;;;;;;48.37;37.90;;;;;;;17.62;73.65;101842.03;5041267;28;20227;-65
2021/06/07 05:01:08;;;;;;;51.80;38.90;;;;;;;17.81;72.94;101847.25;5041285;28;20231;-65
2021/06/07 05:03:33;;;;;;;53.30;37.30;;;;;;;17.68;73.01;101842.03;5041443;28;20178;-65
2021/06/07 05:06:00;;;;;;;52.00;41.50;;;;;;;17.81;73.25;101839.34;5041121;28;20457;-65
2021/06/07 05:08:26;;;;;;;52.47;38.67;;;;;;;17.77;72.88;101841.09;5041082;28;20197;-65
2021/06/07 05:10:52;;;;;;;56.17;40.63;;;;;;;17.74;72.83;101842.84;5041662;28;20419;-66
2021/06/07 05:13:18;;;;;;;50.17;38.67;;;;;;;17.74;73.10;101845.50;5040805;28;20785;-66
2021/06/07 05:15:43;;;;;;;47.90;36.77;;;;;;;17.93;72.36;101847.25;5041141;28;20174;-66
2021/06/07 05:18:10;;;;;;;48.80;36.97;;;;;;;17.72;72.86;101839.38;5041569;28;20171;-66
2021/06/07 05:20:35;;;;;;;47.83;37.63;;;;;;;17.85;72.79;101844.59;5040852;28;20186;-66
2021/06/07 05:23:01;;;;;;;47.03;36.90;;;;;;;17.83;72.45;101845.47;5040556;28;20504;-65
2021/06/07 05:25:28;;;;;;;44.70;34.97;;;;;;;17.73;73.29;101839.34;5040566;28;20686;-66
2021/06/07 05:27:54;;;;;;;47.30;37.20;;;;;;;18.15;71.64;101840.13;5039958;28;20198;-65
2021/06/07 05:30:21;;;;;;;48.47;37.50;;;;;;;17.68;73.27;101846.41;5040813;28;20723;-66
2021/06/07 05:32:47;;;;;;;50.03;38.07;;;;;;;18.06;72.24;101848.06;5040336;28;20417;-66
2021/06/07 05:35:15;;;;;;;52.17;39.70;;;;;;;17.99;72.52;101852.50;5040458;28;20431;-65
2021/06/07 05:37:40;;;;;;;49.90;38.57;;;;;;;18.18;71.47;101853.31;5040975;28;20201;-66
2021/06/07 05:40:07;;;;;;;57.63;41.77;;;;;;;18.06;71.91;101855.97;5040476;28;20412;-66
2021/06/07 05:42:32;;;;;;;55.23;38.40;;;;;;;18.00;72.49;101856.03;5040190;28;20185;-66
2021/06/07 05:44:58;;;;;;;49.37;38.50;;;;;;;18.07;72.23;101857.75;5040937;28;20445;-66
2021/06/07 05:47:23;;;;;;;52.37;38.63;;;;;;;17.81;73.09;101853.41;5040384;28;20227;-66
2021/06/07 05:49:48;;;;;;;48.97;38.03;;;;;;;18.04;72.81;101855.13;5040438;28;20178;-66
2021/06/07 05:52:14;;;;;;;46.17;35.63;;;;;;;18.08;72.18;101856.88;5040235;28;20447;-66
2021/06/07 05:54:40;;;;;;;49.60;40.87;;;;;;;18.32;71.56;101866.44;5040128;28;20536;-71
2021/06/07 05:57:06;;;;;;;45.53;35.67;;;;;;;17.93;72.65;101859.56;5049771;28;20264;-67
2021/06/07 05:59:35;;;;;;;46.40;35.37;;;;;;;18.11;71.79;101859.50;5060476;28;20394;-64
2021/06/07 06:02:02;;;;;;;45.80;35.33;;;;;;;18.24;71.11;101870.00;5059871;28;20788;-65
2021/06/07 06:04:27;;;;;;;39.23;33.50;;;;;;;17.93;72.36;101865.72;5059595;28;20570;-64
2021/06/07 06:06:52;;;;;;;41.03;33.80;;;;;;;18.05;71.74;101867.44;5060525;28;20924;-65
2021/06/07 06:09:18;;;;;;;36.83;31.30;;;;;;;18.25;70.81;101864.72;5059746;28;20260;-65
2021/06/07 06:11:43;;;;;;;35.73;30.80;;;;;;;18.37;70.61;101869.06;5059788;28;20440;-65
2021/06/07 06:14:09;;;;;;;37.90;32.57;;;;;;;18.44;70.24;101862.00;5060341;28;20217;-65
2021/06/07 06:16:34;;;;;;;42.40;33.03;;;;;;;18.45;70.25;101869.91;5059572;28;20216;-65
2021/06/07 06:18:59;;;;;;;39.27;33.37;;;;;;;18.13;71.10;101876.22;5058925;28;20204;-65
2021/06/07 06:21:27;;;;;;;38.00;32.47;;;;;;;18.38;70.23;101869.97;5059713;28;20414;-65
2021/06/07 06:23:55;;;;;;;42.43;33.53;;;;;;;18.23;71.08;101870.91;5059335;28;20169;-65
2021/06/07 06:26:21;;;;;;;35.57;31.60;;;;;;;18.64;69.89;101875.09;5059552;28;20391;-65
2021/06/07 06:28:47;;;;;;;46.50;40.47;;;;;;;18.79;69.22;101869.69;5059893;28;20408;-65
2021/06/07 06:31:13;;;;;;;39.80;35.20;;;;;;;18.41;70.51;101864.66;5059422;28;20431;-65
2021/06/07 06:33:38;;;;;;;40.90;35.40;;;;;;;18.65;69.63;101867.16;5059431;28;20166;-65
2021/06/07 06:36:04;;;;;;;37.17;32.60;;;;;;;18.43;70.58;101873.44;5059928;28;20279;-65
2021/06/07 06:38:29;;;;;;;41.30;35.30;;;;;;;18.52;69.96;101870.75;5059390;28;20239;-65
2021/06/07 06:40:56;;;;;;;48.00;37.60;;;;;;;18.72;69.78;101877.69;5059362;28;20500;-65
2021/06/07 06:43:22;;;;;;;38.40;31.17;;;;;;;18.40;70.38;101869.06;5059381;28;20215;-66
2021/06/07 06:45:48;;;;;;;37.57;33.57;;;;;;;18.37;70.52;101871.69;5058183;28;20487;-65
2021/06/07 06:48:13;;;;;;;36.87;32.67;;;;;;;19.02;68.28;101869.59;5058634;28;20188;-67
2021/06/07 06:50:40;;;;;;;33.17;29.67;;;;;;;19.04;68.13;101872.22;5059248;28;20499;-67
2021/06/07 06:53:08;;;;;;;35.97;31.70;;;;;;;19.07;68.25;101871.31;5058750;28;20165;-66
2021/06/07 06:55:33;;;;;;;36.83;32.83;;;;;;;19.07;67.63;101876.63;5058777;28;20447;-66
2021/06/07 06:57:58;;;;;;;33.47;30.07;;;;;;;18.43;69.94;101882.25;5059102;28;20466;-66
2021/06/07 07:00:24;;;;;;;36.90;31.93;;;;;;;18.38;70.35;101883.16;5058929;28;20181;-65
2021/06/07 07:02:49;;;;;;;36.50;29.50;;;;;;;18.77;69.00;101883.84;5058293;28;20207;-65
2021/06/07 07:05:15;;;;;;;33.43;29.93;;;;;;;19.32;66.64;101894.03;5058620;28;20566;-66
2021/06/07 07:07:40;;;;;;;35.33;31.43;;;;;;;19.02;67.98;101896.03;5058468;28;20180;-65
2021/06/07 07:10:07;;;;;;;37.07;32.10;;;;;;;19.16;67.77;101890.63;5058337;28;20193;-66
2021/06/07 07:12:32;;;;;;;37.73;32.23;;;;;;;19.16;67.98;101895.91;5058532;28;20170;-66
2021/06/07 07:14:58;;;;;;;45.80;40.67;;;;;;;19.31;67.57;101907.28;5057792;28;20423;-65
2021/06/07 07:17:23;;;;;;;38.30;34.00;;;;;;;19.41;66.94;101898.34;5057795;28;20170;-67
2021/06/07 07:19:49;;;;;;;38.50;34.20;;;;;;;19.15;67.41;101902.06;5058493;28;20315;-69
2021/06/07 07:22:15;;;;;;;46.40;39.97;;;;;;;19.63;66.51;101906.97;5057194;28;20165;-66
2021/06/07 07:24:44;;;;;;;38.27;33.97;;;;;;;19.40;67.01;101909.81;5057974;28;20703;-66
2021/06/07 07:27:11;;;;;;;40.43;33.57;;;;;;;19.34;67.38;101908.09;5058523;28;20441;-66
2021/06/07 07:29:37;;;;;;;37.87;33.80;;;;;;;19.26;67.97;101906.41;5058165;28;20435;-67
2021/06/07 07:32:04;;;;;;;36.83;32.80;;;;;;;19.44;66.98;101902.75;5057920;28;20434;-67
2021/06/07 07:34:29;;;;;;;38.40;34.17;;;;;;;19.97;65.03;101905.78;5058107;28;20404;-66
2021/06/07 07:36:55;;;;;;;36.10;32.10;;;;;;;19.40;66.22;101907.16;5057792;28;20499;-65
2021/06/07 07:39:20;;;;;;;33.50;29.83;;;;;;;18.95;68.21;101910.16;5057797;28;20184;-66
2021/06/07 07:41:45;;;;;;;36.10;32.23;;;;;;;19.25;67.45;101907.31;5058227;28;20188;-66
2021/06/07 07:44:11;;;;;;;34.07;30.70;;;;;;;19.56;66.27;101912.34;5057770;28;20205;-66
2021/06/07 07:46:36;;;;;;;31.10;27.90;;;;;;;20.31;63.29;101900.97;5057999;28;20187;-67
2021/06/07 07:49:01;;;;;;;32.00;28.60;;;;;;;20.66;62.34;101904.03;5058274;28;20528;-66
2021/06/07 07:51:27;;;;;;;30.40;27.47;;;;;;;21.00;61.28;101895.66;5057051;28;20188;-67
2021/06/07 07:53:52;;;;;;;30.10;27.10;;;;;;;20.74;61.67;101899.53;5057434;28;20177;-66
2021/06/07 07:56:17;;;;;;;30.93;27.70;;;;;;;20.91;61.94;101898.44;5057914;28;20594;-67
2021/06/07 07:58:43;;;;;;;32.70;27.30;;;;;;;20.83;61.35;101899.41;5057637;28;20504;-67
2021/06/07 08:01:08;;;;;;;29.40;26.60;;;;;;;20.96;61.15;101892.16;5057731;28;20161;-66
2021/06/07 08:03:33;;;;;;;30.20;27.20;;;;;;;20.76;61.52;101897.75;5058279;28;20170;-66
2021/06/07 08:06:00;;;;;;;30.63;27.73;;;;;;;21.15;60.66;101898.06;5057717;28;20209;-65
2021/06/07 08:08:25;;;;;;;30.07;27.07;;;;;;;20.74;61.86;101899.53;5057501;28;20174;-67
2021/06/07 08:10:55;;;;;;;31.13;27.87;;;;;;;21.31;60.91;101895.13;5058358;28;20405;-66
2021/06/07 08:13:21;;;;;;;31.00;27.87;;;;;;;21.34;59.76;101897.75;5057681;28;20436;-66
2021/06/07 08:15:46;;;;;;;31.10;28.07;;;;;;;21.27;60.91;101893.44;5057696;28;20412;-65
2021/06/07 08:18:11;;;;;;;31.23;28.13;;;;;;;20.91;61.02;101901.09;5058348;28;20201;-65
2021/06/07 08:20:37;;;;;;;30.20;27.20;;;;;;;20.89;61.71;101900.22;5057641;28;20197;-67
2021/06/07 08:23:02;;;;;;;34.73;31.23;;;;;;;20.97;61.56;101893.94;5056485;28;20461;-66
2021/06/07 08:25:28;;;;;;;33.37;30.30;;;;;;;20.82;61.50;101895.03;5057424;28;20452;-66
2021/06/07 08:27:53;;;;;;;35.37;31.87;;;;;;;20.99;60.98;101891.25;5060451;28;20174;-66
2021/06/07 08:30:20;;;;;;;47.00;42.10;;;;;;;21.22;60.71;101898.81;5062014;28;20537;-65
2021/06/07 08:32:45;;;;;;;45.67;40.93;;;;;;;21.29;60.44;101896.94;5061611;28;20169;-65
2021/06/07 08:35:11;;;;;;;39.63;35.43;;;;;;;21.26;60.47;101895.22;5056844;28;20479;-66
2021/06/07 08:37:38;;;;;;;42.30;37.50;;;;;;;21.28;60.30;101901.34;5041591;28;20174;-66
2021/06/07 08:40:05;;;;;;;34.77;31.57;;;;;;;21.10;60.13;101893.72;5045188;28;20842;-66
2021/06/07 08:42:31;;;;;;;38.37;34.37;;;;;;;21.11;60.39;101899.00;5060004;28;20450;-66
2021/06/07 08:44:57;;;;;;;40.07;35.93;;;;;;;21.20;59.96;101896.22;5060511;28;20464;-67
2021/06/07 08:47:23;;;;;;;51.87;44.97;;;;;;;21.66;58.61;101899.88;5042645;28;20437;-65
2021/06/07 08:49:48;;;;;;;45.97;41.37;;;;;;;20.80;61.07;101906.56;5060960;28;20230;-65
2021/06/07 08:52:15;;;;;;;47.20;42.37;;;;;;;21.27;59.65;101896.97;5041917;28;20444;-65
2021/06/07 08:54:40;;;;;;;52.60;47.40;;;;;;;22.42;56.51;101894.88;5047045;28;20186;-66
2021/06/07 08:57:06;;;;;;;54.13;48.80;;;;;;;22.63;55.81;101893.53;5051781;28;20489;-65
2021/06/07 08:59:31;;;;;;;44.57;39.90;;;;;;;22.44;56.30;101896.59;5049020;28;20718;-66
2021/06/07 09:02:01;;;;;;;50.20;45.20;;;;;;;22.58;56.03;101895.41;5043793;28;20190;-67
2021/06/07 09:04:26;;;;;;;45.53;40.90;;;;;;;22.54;56.19;101886.63;5044303;28;20284;-66
2021/06/07 09:06:53;;;;;;;45.60;41.27;;;;;;;22.43;56.93;101897.47;5055761;28;20527;-65
2021/06/07 09:09:25;;;;;;;45.77;41.27;;;;;;;22.41;55.05;101890.44;5046267;28;20182;-65
2021/06/07 09:11:58;;;;;;;45.10;40.70;;;;;;;22.30;55.44;101891.53;5050062;28;20450;-65
2021/06/07 09:14:29;;;;;;;46.80;42.30;;;;;;;22.30;55.38;101890.66;5064895;28;20407;-65
2021/06/07 09:16:55;;;;;;;45.90;41.50;;;;;;;22.88;53.53;101892.06;5043374;28;20451;-66
2021/06/07 09:19:31;;;;;;;42.50;38.60;;;;;;;22.41;55.62;101891.34;5042279;28;20459;-65
2021/06/07 09:22:19;;;;;;;43.13;39.10;;;;;;;21.90;57.78;101896.78;5043145;28;20197;-65
2021/06/07 09:25:05;;;;;;;41.97;37.67;;;;;;;22.10;56.52;101896.41;5040239;28;20483;-66
2021/06/07 09:27:31;;;;;;;40.60;36.80;;;;;;;22.06;56.96;101890.25;5040322;28;20692;-66
2021/06/07 09:29:56;;;;;;;40.53;36.63;;;;;;;22.18;57.41;101897.13;5040563;28;20424;-65
2021/06/07 09:32:22;;;;;;;40.20;36.40;;;;;;;22.11;56.91;101891.06;5043730;28;20537;-65
2021/06/07 09:35:07;;;;;;;41.03;36.97;;;;;;;22.45;55.88;101890.38;5041919;28;20553;-65
2021/06/07 09:37:32;;;;;;;37.30;33.90;;;;;;;22.60;55.23;101889.16;5054747;28;20311;-66
2021/06/07 09:40:20;;;;;;;36.93;33.53;;;;;;;22.53;55.17;101883.09;5047089;28;20535;-65
2021/06/07 09:43:11;;;;;;;32.30;29.33;;;;;;;22.12;56.49;101890.16;5043582;28;20177;-65
2021/06/07 09:45:46;;;;;;;36.10;32.80;;;;;;;21.85;56.70;101896.84;5054418;28;20520;-65
2021/06/07 09:48:16;;;;;;;38.60;35.10;;;;;;;21.92;56.65;101887.00;5049883;28;20440;-67
2021/06/07 09:51:00;;;;;;;30.03;27.43;;;;;;;22.45;54.84;101890.38;5039980;28;20473;-66
2021/06/07 09:53:48;;;;;;;29.73;27.00;;;;;;;22.79;53.74;101881.63;5040118;28;20504;-65
2021/06/07 09:56:13;;;;;;;26.90;24.50;;;;;;;22.58;54.16;101890.09;5044478;28;20436;-65
2021/06/07 09:58:40;;;;;;;38.33;34.57;;;;;;;22.81;54.31;101887.81;5043047;28;20435;-65
2021/06/07 10:01:09;;;;;;;25.83;23.53;;;;;;;22.66;55.01;101886.38;5040023;28;20220;-66
2021/06/07 10:03:48;;;;;;;27.13;24.53;;;;;;;22.85;54.82;101884.16;5043846;28;20444;-67
2021/06/07 10:06:25;;;;;;;40.43;36.40;;;;;;;22.24;56.22;101885.47;5058549;28;20491;-66
2021/06/07 10:08:57;;;;;;;28.10;25.60;;;;;;;22.17;56.03;101888.25;5040627;28;20892;-67
2021/06/07 10:11:33;;;;;;;29.50;26.53;;;;;;;21.92;58.09;101885.25;5039612;28;20429;-66
2021/06/07 10:14:19;;;;;;;29.87;26.97;;;;;;;22.47;56.68;101893.84;5051810;28;20745;-66
2021/06/07 10:17:01;;;;;;;26.80;24.30;;;;;;;21.97;57.70;101893.97;5048935;28;20539;-66
2021/06/07 10:19:58;;;;;;;27.93;25.23;;;;;;;22.12;56.65;101894.56;5054496;28;20509;-66
2021/06/07 10:22:17;;;;;;;26.47;23.97;;;;;;;21.87;58.21;101897.72;5053525;28;20436;-66
2021/06/07 10:24:42;;;;;;;26.70;24.30;;;;;;;21.96;57.57;101896.66;5043752;28;20841;-66
2021/06/07 10:27:08;;;;;;;26.97;24.40;;;;;;;22.11;56.73;101896.38;5045161;28;20228;-66
2021/06/07 10:29:39;;;;;;;27.47;24.87;;;;;;;22.45;56.36;101895.69;5041387;28;20244;-66
2021/06/07 10:32:10;;;;;;;26.30;23.80;;;;;;;22.31;55.93;101892.41;5042652;28;20197;-66
2021/06/07 10:34:49;;;;;;;25.90;23.30;;;;;;;22.32;56.25;101891.50;5039181;28;20468;-66
2021/06/07 10:37:15;;;;;;;26.70;23.80;;;;;;;22.38;56.16;101899.41;5043515;28;20440;-65
2021/06/07 10:39:40;;;;;;;26.43;24.07;;;;;;;22.30;55.74;101891.53;5039429;28;20425;-65
2021/06/07 10:42:08;;;;;;;25.03;22.73;;;;;;;22.85;54.30;101894.78;5041893;28;20204;-69
2021/06/07 10:44:35;;;;;;;26.03;23.60;;;;;;;23.56;53.33;101892.19;5038843;28;20197;-67
2021/06/07 10:47:06;;;;;;;24.73;22.53;;;;;;;23.06;54.33;101889.88;5046391;28;20444;-68
2021/06/07 10:49:37;;;;;;;25.70;23.40;;;;;;;23.92;52.29;101899.25;5053283;28;20441;-66
2021/06/07 10:52:15;;;;;;;24.20;22.03;;;;;;;23.23;53.03;101896.59;5040748;28;20527;-65
2021/06/07 10:55:04;;;;;;;27.00;24.53;;;;;;;23.84;51.49;101896.75;5038824;28;20415;-66
2021/06/07 10:57:39;;;;;;;26.47;23.90;;;;;;;24.57;50.14;101886.69;5038713;28;20420;-66
2021/06/07 11:00:31;;;;;;;24.83;22.53;;;;;;;25.37;48.24;101889.47;5038893;28;20503;-66
2021/06/07 11:03:01;;;;;;;23.53;21.53;;;;;;;25.43;46.57;101889.28;5038715;28;20401;-67
2021/06/07 11:05:28;;;;;;;22.60;20.60;;;;;;;25.49;46.59;101877.50;5038799;28;20460;-66
2021/06/07 11:08:07;;;;;;;23.47;21.17;;;;;;;25.18;47.56;101890.09;5038875;28;20500;-66
2021/06/07 11:10:39;;;;;;;23.57;21.57;;;;;;;24.45;48.97;101886.16;5045342;28;20439;-65